createdAt,value
2023-02-11T00:01:28.834Z,0.69
2023-02-11T00:03:59.173Z,0.70
2023-02-11T00:06:29.081Z,0.72
2023-02-11T00:08:58.572Z,0.72
2023-02-11T00:11:30.280Z,0.72
2023-02-11T00:13:58.445Z,0.75
2023-02-11T00:16:26.877Z,0.79
2023-02-11T00:18:54.910Z,0.83
2023-02-11T00:21:24.552Z,0.82
2023-02-11T00:23:52.845Z,0.85
2023-02-11T00:26:23.917Z,0.86
2023-02-11T00:28:53.364Z,0.87
2023-02-11T00:31:22.678Z,0.87
2023-02-11T00:33:51.135Z,0.88
2023-02-11T00:36:20.952Z,0.83
2023-02-11T00:38:49.943Z,0.81
2023-02-11T00:41:18.526Z,0.82
2023-02-11T00:43:47.687Z,0.87
2023-02-11T00:46:16.111Z,0.84
2023-02-11T00:48:44.702Z,0.82
2023-02-11T00:51:13.034Z,0.81
2023-02-11T00:53:41.020Z,0.82
2023-02-11T00:56:08.998Z,0.86
2023-02-11T00:58:36.833Z,0.84
2023-02-11T01:01:06.448Z,0.90
2023-02-11T01:03:34.684Z,0.92
2023-02-11T01:06:02.601Z,0.94
2023-02-11T01:08:30.447Z,0.90
2023-02-11T01:10:59.544Z,0.90
2023-02-11T01:13:27.823Z,0.89
2023-02-11T01:15:56.207Z,0.88
2023-02-11T01:18:25.886Z,0.85
2023-02-11T01:20:54.373Z,0.81
2023-02-11T01:23:22.563Z,0.80
2023-02-11T01:25:50.994Z,0.83
2023-02-11T01:28:20.289Z,0.83
2023-02-11T01:30:48.573Z,0.88
2023-02-11T01:33:16.620Z,0.90
2023-02-11T01:35:46.094Z,0.97
2023-02-11T01:38:18.402Z,0.98
2023-02-11T01:40:50.278Z,1.02
2023-02-11T01:43:18.339Z,1.04
2023-02-11T01:46:13.867Z,1.07
2023-02-11T01:48:45.259Z,1.07
2023-02-11T01:51:17.969Z,1.09
2023-02-11T01:54:05.337Z,1.12
2023-02-11T01:56:53.656Z,1.10
2023-02-11T01:59:25.458Z,1.06
2023-02-11T02:01:59.868Z,1.04
2023-02-11T02:04:33.562Z,1.05
2023-02-11T02:07:07.443Z,1.11
2023-02-11T02:09:40.672Z,1.15
2023-02-11T02:12:08.810Z,1.14
2023-02-11T02:14:39.999Z,1.16
2023-02-11T02:17:08.543Z,1.21
2023-02-11T02:20:23.448Z,1.24
2023-02-11T02:23:18.408Z,1.28
2023-02-11T02:26:19.860Z,1.31
2023-02-11T02:29:25.189Z,1.40
2023-02-11T02:32:24.307Z,1.47
2023-02-11T02:34:59.321Z,1.51
2023-02-11T02:37:34.319Z,1.53
2023-02-11T02:40:09.028Z,1.58
2023-02-11T02:42:37.703Z,1.63
2023-02-11T02:45:07.770Z,1.65
2023-02-11T02:47:36.970Z,1.66
2023-02-11T02:50:05.981Z,1.68
2023-02-11T02:52:40.828Z,1.72
2023-02-11T02:55:19.970Z,1.73
2023-02-11T02:58:12.908Z,1.59
2023-02-11T03:00:48.823Z,1.49
2023-02-11T03:03:35.886Z,1.40
2023-02-11T03:06:09.104Z,1.34
2023-02-11T03:08:43.336Z,1.34
2023-02-11T03:11:12.639Z,1.39
2023-02-11T03:13:41.826Z,1.41
2023-02-11T03:16:14.561Z,1.41
2023-02-11T03:18:50.570Z,1.40
2023-02-11T03:21:21.208Z,1.42
2023-02-11T03:23:53.680Z,1.44
2023-02-11T03:26:26.724Z,1.42
2023-02-11T03:28:58.871Z,1.48
2023-02-11T03:31:34.537Z,1.52
2023-02-11T03:34:08.720Z,1.52
2023-02-11T03:36:45.996Z,1.53
2023-02-11T03:39:15.702Z,1.52
2023-02-11T03:41:44.861Z,1.54
2023-02-11T03:44:16.360Z,1.55
2023-02-11T03:46:49.149Z,1.56
2023-02-11T03:49:21.488Z,1.55
2023-02-11T03:51:52.761Z,1.53
2023-02-11T03:54:25.347Z,1.52
2023-02-11T03:56:55.924Z,1.51
2023-02-11T03:59:23.760Z,1.55
2023-02-11T04:01:51.551Z,1.58
2023-02-11T04:04:20.616Z,1.58
2023-02-11T04:06:48.427Z,1.53
2023-02-11T04:09:16.233Z,1.53
2023-02-11T04:11:43.964Z,1.47
2023-02-11T04:14:11.787Z,1.45
2023-02-11T04:16:39.590Z,1.46
2023-02-11T04:19:07.373Z,1.41
2023-02-11T04:21:36.531Z,1.42
2023-02-11T04:24:04.526Z,1.47
2023-02-11T04:26:32.271Z,1.49
2023-02-11T04:28:59.922Z,1.50
2023-02-11T04:31:27.739Z,1.50
2023-02-11T04:33:55.513Z,1.50
2023-02-11T04:36:23.352Z,1.50
2023-02-11T04:38:52.368Z,1.46
2023-02-11T04:41:20.117Z,1.43
2023-02-11T04:43:47.846Z,1.44
2023-02-11T04:46:15.632Z,1.42
2023-02-11T04:48:43.463Z,1.42
2023-02-11T04:51:11.234Z,1.41
2023-02-11T04:53:38.990Z,1.42
2023-02-11T04:56:08.241Z,1.41
2023-02-11T04:58:36.055Z,1.42
2023-02-11T05:01:07.998Z,1.44
2023-02-11T05:03:35.812Z,1.42
2023-02-11T05:06:03.567Z,1.39
2023-02-11T05:08:31.449Z,1.34
2023-02-11T05:10:59.298Z,1.28
2023-02-11T05:13:28.480Z,1.24
2023-02-11T05:15:56.256Z,1.22
2023-02-11T05:18:24.304Z,1.17
2023-02-11T05:20:51.990Z,1.07
2023-02-11T05:23:19.701Z,1.00
2023-02-11T05:25:47.411Z,0.94
2023-02-11T05:28:15.210Z,0.89
2023-02-11T05:30:44.349Z,0.85
2023-02-11T05:33:12.141Z,0.81
2023-02-11T05:35:39.840Z,0.83
2023-02-11T05:38:07.590Z,0.84
2023-02-11T05:40:35.301Z,0.84
2023-02-11T05:43:03.082Z,0.81
2023-02-11T05:45:31.789Z,0.81
2023-02-11T05:48:01.038Z,0.81
2023-02-11T05:50:28.818Z,0.84
2023-02-11T05:52:56.549Z,0.86
2023-02-11T05:55:24.506Z,0.87
2023-02-11T05:57:52.236Z,0.88
2023-02-11T06:00:20.382Z,0.89
2023-02-11T06:02:48.118Z,0.90
2023-02-11T06:05:17.384Z,0.88
2023-02-11T06:07:45.144Z,0.88
2023-02-11T06:10:13.555Z,0.86
2023-02-11T06:12:41.518Z,0.85
2023-02-11T06:15:09.500Z,0.84
2023-02-11T06:17:37.412Z,0.83
2023-02-11T06:20:07.255Z,0.82
2023-02-11T06:22:36.347Z,0.83
2023-02-11T06:25:04.188Z,0.87
2023-02-11T06:27:31.924Z,0.85
2023-02-11T06:29:59.611Z,0.85
2023-02-11T06:32:45.636Z,0.85
2023-02-11T06:35:14.322Z,0.90
2023-02-11T06:37:43.920Z,0.90
2023-02-11T06:40:12.659Z,0.90
2023-02-11T06:42:40.487Z,0.90
2023-02-11T06:45:11.148Z,0.89
2023-02-11T06:47:39.163Z,0.90
2023-02-11T06:50:09.224Z,0.93
2023-02-11T06:52:36.973Z,0.92
2023-02-11T06:55:06.594Z,0.89
2023-02-11T06:57:34.371Z,0.83
2023-02-11T07:00:02.534Z,0.83
2023-02-11T07:02:30.525Z,0.82
2023-02-11T07:04:58.502Z,0.77
2023-02-11T07:07:26.280Z,0.71
2023-02-11T07:09:54.111Z,0.70
2023-02-11T07:12:23.194Z,0.71
2023-02-11T07:14:50.990Z,0.72
2023-02-11T07:17:18.711Z,0.76
2023-02-11T07:19:46.497Z,0.79
2023-02-11T07:22:14.253Z,0.83
2023-02-11T07:24:42.136Z,0.83
2023-02-11T07:27:09.883Z,0.88
2023-02-11T07:29:39.109Z,0.93
2023-02-11T07:32:07.263Z,0.97
2023-02-11T07:34:35.315Z,1.03
2023-02-11T07:37:03.211Z,1.08
2023-02-11T07:39:31.106Z,1.11
2023-02-11T07:41:58.886Z,1.11
2023-02-11T07:44:26.688Z,1.18
2023-02-11T07:46:55.766Z,1.21
2023-02-11T07:49:23.480Z,1.25
2023-02-11T07:51:51.495Z,1.32
2023-02-11T07:54:19.308Z,1.36
2023-02-11T07:56:47.079Z,1.40
2023-02-11T07:59:14.851Z,1.45
2023-02-11T08:01:42.586Z,1.48
2023-02-11T08:04:11.827Z,1.51
2023-02-11T08:06:43.617Z,1.52
2023-02-11T08:09:16.538Z,1.60
2023-02-11T08:11:44.442Z,1.70
2023-02-11T08:14:12.833Z,1.80
2023-02-11T08:16:41.258Z,1.90
2023-02-11T08:19:13.598Z,1.99
2023-02-11T08:21:41.825Z,2.06
2023-02-11T08:24:09.995Z,2.13
2023-02-11T08:26:38.935Z,2.21
2023-02-11T08:29:09.407Z,2.28
2023-02-11T08:31:39.743Z,2.35
2023-02-11T08:34:08.005Z,2.41
2023-02-11T08:36:38.890Z,2.43
2023-02-11T08:39:18.483Z,2.50
2023-02-11T08:41:48.871Z,2.53
2023-02-11T08:44:17.039Z,2.66
2023-02-11T08:46:45.207Z,2.79
2023-02-11T08:49:13.113Z,2.95
2023-02-11T08:51:42.336Z,3.13
2023-02-11T08:54:10.546Z,3.28
2023-02-11T08:56:39.043Z,3.51
2023-02-11T08:59:09.268Z,3.73
2023-02-11T09:01:37.442Z,3.96
2023-02-11T09:04:05.466Z,4.26
2023-02-11T09:06:33.520Z,4.45
2023-02-11T09:09:02.832Z,4.63
2023-02-11T09:11:33.447Z,4.73
2023-02-11T09:14:01.970Z,4.89
2023-02-11T09:16:33.664Z,5.08
2023-02-11T09:19:03.177Z,5.39
2023-02-11T09:21:31.714Z,5.56
2023-02-11T09:23:59.838Z,5.72
2023-02-11T09:26:31.515Z,5.89
2023-02-11T09:28:59.807Z,6.07
2023-02-11T09:31:29.396Z,6.16
2023-02-11T09:33:59.910Z,6.27
2023-02-11T09:36:30.433Z,6.37
2023-02-11T09:39:00.692Z,6.37
2023-02-11T09:41:46.532Z,6.35
2023-02-11T09:44:21.034Z,6.28
2023-02-11T09:46:55.814Z,6.12
2023-02-11T09:49:32.491Z,6.01
2023-02-11T09:52:05.759Z,6.13
2023-02-11T09:54:40.628Z,6.26
2023-02-11T09:57:26.449Z,6.30
2023-02-11T09:59:56.396Z,6.06
2023-02-11T10:02:29.373Z,5.90
2023-02-11T10:05:11.291Z,5.88
2023-02-11T10:07:46.429Z,5.81
2023-02-11T10:10:35.017Z,5.81
2023-02-11T10:13:21.015Z,5.75
2023-02-11T10:15:57.234Z,5.73
2023-02-11T10:18:46.492Z,5.89
2023-02-11T10:21:21.163Z,5.90
2023-02-11T10:23:53.962Z,5.89
2023-02-11T10:26:22.365Z,5.94
2023-02-11T10:28:55.508Z,5.93
2023-02-11T10:31:27.221Z,5.90
2023-02-11T10:34:00.727Z,5.97
2023-02-11T10:36:31.030Z,6.06
2023-02-11T10:39:00.724Z,6.12
2023-02-11T10:41:34.974Z,6.22
2023-02-11T10:44:07.878Z,6.35
2023-02-11T10:46:38.077Z,6.35
2023-02-11T10:49:05.805Z,6.45
2023-02-11T10:51:35.183Z,6.51
2023-02-11T10:54:19.462Z,6.71
2023-02-11T10:56:52.223Z,6.80
2023-02-11T10:59:28.459Z,6.91
2023-02-11T11:02:00.708Z,7.02
2023-02-11T11:04:38.256Z,7.26
2023-02-11T11:07:16.921Z,7.51
2023-02-11T11:09:48.465Z,7.63
2023-02-11T11:12:31.992Z,7.61
2023-02-11T11:15:03.802Z,7.59
2023-02-11T11:17:31.856Z,7.71
2023-02-11T11:20:20.285Z,7.81
2023-02-11T11:22:49.289Z,7.76
2023-02-11T11:25:25.771Z,7.89
2023-02-11T11:27:57.058Z,7.95
2023-02-11T11:30:32.406Z,8.06
2023-02-11T11:33:01.964Z,8.40
2023-02-11T11:35:33.023Z,8.62
2023-02-11T11:38:03.351Z,8.84
2023-02-11T11:40:32.677Z,8.84
2023-02-11T11:43:20.253Z,8.98
2023-02-11T11:45:59.265Z,9.11
2023-02-11T11:48:32.583Z,9.13
2023-02-11T11:51:03.188Z,9.26
2023-02-11T11:53:39.082Z,9.24
2023-02-11T11:56:11.813Z,9.34
2023-02-11T11:58:39.530Z,9.34
2023-02-11T12:01:23.347Z,9.28
2023-02-11T12:04:19.673Z,9.34
2023-02-11T12:06:57.575Z,9.32
2023-02-11T12:09:37.016Z,9.28
2023-02-11T12:12:29.328Z,9.28
2023-02-11T12:15:11.362Z,9.21
2023-02-11T12:17:56.638Z,9.05
2023-02-11T12:20:33.904Z,9.09
2023-02-11T12:23:16.057Z,9.10
2023-02-11T12:25:52.508Z,9.09
2023-02-11T12:28:32.944Z,9.05
2023-02-11T12:31:16.746Z,9.13
2023-02-11T12:34:06.249Z,9.02
2023-02-11T12:36:48.974Z,9.05
2023-02-11T12:39:32.647Z,8.95
2023-02-11T12:42:42.620Z,8.88
2023-02-11T12:45:22.918Z,8.87
2023-02-11T12:48:04.704Z,8.80
2023-02-11T12:50:46.154Z,8.66
2023-02-11T12:53:31.875Z,8.54
2023-02-11T12:56:05.034Z,8.45
2023-02-11T12:58:44.976Z,8.39
2023-02-11T13:01:20.227Z,8.48
2023-02-11T13:03:53.992Z,8.33
2023-02-11T13:06:30.276Z,8.30
2023-02-11T13:09:02.193Z,8.23
2023-02-11T13:11:34.164Z,8.11
2023-02-11T13:14:05.146Z,8.09
2023-02-11T13:16:39.297Z,8.12
2023-02-11T13:19:19.482Z,8.02
2023-02-11T13:22:04.458Z,8.08
2023-02-11T13:24:44.294Z,7.97
2023-02-11T13:27:26.433Z,7.86
2023-02-11T13:30:21.435Z,7.82
2023-02-11T13:33:20.547Z,7.81
2023-02-11T13:36:13.186Z,7.82
2023-02-11T13:38:51.811Z,7.80
2023-02-11T13:41:24.738Z,7.75
2023-02-11T13:44:00.173Z,7.70
2023-02-11T13:46:30.739Z,7.68
2023-02-11T13:48:59.439Z,7.67
2023-02-11T13:51:38.879Z,7.63
2023-02-11T13:54:09.562Z,7.52
2023-02-11T13:56:39.742Z,7.52
2023-02-11T13:59:42.345Z,7.50
2023-02-11T14:02:42.537Z,7.52
2023-02-11T14:05:48.792Z,7.53
2023-02-11T14:08:43.695Z,7.49
2023-02-11T14:11:52.409Z,7.45
2023-02-11T14:14:25.913Z,7.37
2023-02-11T14:17:30.938Z,7.32
2023-02-11T14:19:59.917Z,7.34
2023-02-11T14:22:30.283Z,7.30
2023-02-11T14:25:00.856Z,7.28
2023-02-11T14:27:43.341Z,7.26
2023-02-11T14:30:27.370Z,7.24
2023-02-11T14:33:18.079Z,7.21
2023-02-11T14:36:00.596Z,7.18
2023-02-11T14:38:36.939Z,7.18
2023-02-11T14:41:09.056Z,7.15
2023-02-11T14:43:43.044Z,7.16
2023-02-11T14:46:11.150Z,7.13
2023-02-11T14:48:44.608Z,7.16
2023-02-11T14:51:16.011Z,7.15
2023-02-11T14:53:47.504Z,7.11
2023-02-11T14:56:22.375Z,7.13
2023-02-11T14:58:52.977Z,7.10
2023-02-11T15:01:30.843Z,7.05
2023-02-11T15:03:59.469Z,7.08
2023-02-11T15:06:31.555Z,7.07
2023-02-11T15:09:02.099Z,7.07
2023-02-11T15:11:32.891Z,7.05
2023-02-11T15:14:09.556Z,7.02
2023-02-11T15:16:43.389Z,7.01
2023-02-11T15:19:21.137Z,7.00
2023-02-11T15:21:51.780Z,7.03
2023-02-11T15:24:25.284Z,7.03
2023-02-11T15:27:00.952Z,7.04
2023-02-11T15:29:37.384Z,7.07
2023-02-11T15:32:07.388Z,7.06
2023-02-11T15:34:35.969Z,7.07
2023-02-11T15:37:04.507Z,7.09
2023-02-11T15:39:35.576Z,7.10
2023-02-11T15:42:21.180Z,7.11
2023-02-11T15:44:56.592Z,7.10
2023-02-11T15:47:30.895Z,7.10
2023-02-11T15:49:59.165Z,7.09
2023-02-11T15:52:28.984Z,7.06
2023-02-11T15:55:00.708Z,7.05
2023-02-11T15:57:29.321Z,7.06
2023-02-11T16:00:04.570Z,7.06
2023-02-11T16:02:34.423Z,7.05
2023-02-11T16:05:05.613Z,7.06
2023-02-11T16:07:44.842Z,7.05
2023-02-11T16:10:25.631Z,7.04
2023-02-11T16:13:18.247Z,7.03
2023-02-11T16:15:55.505Z,7.01
2023-02-11T16:18:38.864Z,7.01
2023-02-11T16:21:14.425Z,7.01
2023-02-11T16:23:43.430Z,7.03
2023-02-11T16:26:22.047Z,7.02
2023-02-11T16:28:50.263Z,6.99
2023-02-11T16:31:20.045Z,7.01
2023-02-11T16:33:47.885Z,7.00
2023-02-11T16:36:18.105Z,7.00
2023-02-11T16:38:45.998Z,6.97
2023-02-11T16:41:14.319Z,6.92
2023-02-11T16:43:42.056Z,6.87
2023-02-11T16:46:13.848Z,6.84
2023-02-11T16:48:43.216Z,6.83
2023-02-11T16:51:13.171Z,6.82
2023-02-11T16:53:41.155Z,6.83
2023-02-11T16:56:15.095Z,6.84
2023-02-11T16:58:42.853Z,6.85
2023-02-11T17:01:13.750Z,6.85
2023-02-11T17:03:43.768Z,6.85
2023-02-11T17:06:13.575Z,6.84
2023-02-11T17:08:42.031Z,6.84
2023-02-11T17:11:09.815Z,6.85
2023-02-11T17:13:39.440Z,6.85
2023-02-11T17:16:07.218Z,6.84
2023-02-11T17:18:36.003Z,6.83
2023-02-11T17:21:07.481Z,6.83
2023-02-11T17:23:35.158Z,6.82
2023-02-11T17:26:02.947Z,6.81
2023-02-11T17:28:30.741Z,6.80
2023-02-11T17:30:58.523Z,6.80
2023-02-11T17:33:26.434Z,6.79
2023-02-11T17:35:54.514Z,6.77
2023-02-11T17:38:23.964Z,6.75
2023-02-11T17:40:58.738Z,6.75
2023-02-11T17:43:26.552Z,6.71
2023-02-11T17:45:54.762Z,6.66
2023-02-11T17:48:22.760Z,6.67
2023-02-11T17:50:50.521Z,6.68
2023-02-11T17:53:18.392Z,6.66
2023-02-11T17:55:47.455Z,6.62
2023-02-11T17:58:15.230Z,6.58
2023-02-11T18:00:43.405Z,6.55
2023-02-11T18:03:11.174Z,6.51
2023-02-11T18:05:39.524Z,6.45
2023-02-11T18:08:08.619Z,6.38
2023-02-11T18:10:36.394Z,6.33
2023-02-11T18:13:05.823Z,6.27
2023-02-11T18:15:34.704Z,6.22
2023-02-11T18:18:02.483Z,6.20
2023-02-11T18:20:30.379Z,6.19
2023-02-11T18:22:58.121Z,6.17
2023-02-11T18:25:25.908Z,6.17
2023-02-11T18:27:53.666Z,6.17
2023-02-11T18:30:24.194Z,6.19
2023-02-11T18:32:54.834Z,6.20
2023-02-11T18:35:22.920Z,6.16
2023-02-11T18:37:50.961Z,6.15
2023-02-11T18:40:19.070Z,6.12
2023-02-11T18:42:47.482Z,6.12
2023-02-11T18:45:15.972Z,6.11
2023-02-11T18:47:45.205Z,6.09
2023-02-11T18:50:15.542Z,6.09
2023-02-11T18:52:43.759Z,6.05
2023-02-11T18:55:11.586Z,6.01
2023-02-11T18:57:39.594Z,6.01
2023-02-11T19:00:10.000Z,5.99
2023-02-11T19:02:37.956Z,5.97
2023-02-11T19:05:07.808Z,5.93
2023-02-11T19:07:35.519Z,5.92
2023-02-11T19:10:03.460Z,5.89
2023-02-11T19:12:33.135Z,5.88
2023-02-11T19:15:01.554Z,5.86
2023-02-11T19:17:29.325Z,5.83
2023-02-11T19:19:57.177Z,5.84
2023-02-11T19:22:26.362Z,5.86
2023-02-11T19:24:54.206Z,5.87
2023-02-11T19:27:21.927Z,5.92
2023-02-11T19:29:49.691Z,5.96
2023-02-11T19:32:17.677Z,6.00
2023-02-11T19:34:45.407Z,5.98
2023-02-11T19:37:13.906Z,6.02
2023-02-11T19:39:43.933Z,6.04
2023-02-11T19:42:12.112Z,6.06
2023-02-11T19:44:40.093Z,6.04
2023-02-11T19:47:07.988Z,6.03
2023-02-11T19:49:35.696Z,6.04
2023-02-11T19:52:03.574Z,6.06
2023-02-11T19:54:31.417Z,6.06
2023-02-11T19:57:00.657Z,6.05
2023-02-11T19:59:28.455Z,6.00
2023-02-11T20:01:57.582Z,6.00
2023-02-11T20:04:25.744Z,5.95
2023-02-11T20:06:53.554Z,5.93
2023-02-11T20:09:21.731Z,5.93
2023-02-11T20:11:50.094Z,5.94
2023-02-11T20:14:19.356Z,5.93
2023-02-11T20:16:49.829Z,5.92
2023-02-11T20:19:19.990Z,5.93
2023-02-11T20:21:48.922Z,5.89
2023-02-11T20:24:17.413Z,5.87
2023-02-11T20:26:46.947Z,5.87
2023-02-11T20:29:15.283Z,5.85
2023-02-11T20:31:44.603Z,5.83
2023-02-11T20:34:12.985Z,5.79
2023-02-11T20:36:41.158Z,5.78
2023-02-11T20:39:08.961Z,5.77
2023-02-11T20:41:40.031Z,5.76
2023-02-11T20:44:11.059Z,5.77
2023-02-11T20:46:40.852Z,5.75
2023-02-11T20:49:12.255Z,5.77
2023-02-11T20:51:40.639Z,5.76
2023-02-11T20:54:12.510Z,5.77
2023-02-11T20:56:40.760Z,5.79
2023-02-11T20:59:08.920Z,5.79
2023-02-11T21:01:40.280Z,5.77
2023-02-11T21:04:12.857Z,5.78
2023-02-11T21:06:43.990Z,5.79
2023-02-11T21:09:14.239Z,5.78
2023-02-11T21:11:42.162Z,5.77
2023-02-11T21:14:10.223Z,5.76
2023-02-11T21:16:38.333Z,5.71
2023-02-11T21:19:07.051Z,5.72
2023-02-11T21:21:38.626Z,5.69
2023-02-11T21:24:07.628Z,5.69
2023-02-11T21:26:36.359Z,5.68
2023-02-11T21:29:04.655Z,5.67
2023-02-11T21:31:34.465Z,5.67
2023-02-11T21:34:02.412Z,5.67
2023-02-11T21:36:30.610Z,5.65
2023-02-11T21:39:01.746Z,5.61
2023-02-11T21:41:30.036Z,5.59
2023-02-11T21:43:58.148Z,5.59
2023-02-11T21:46:26.145Z,5.61
2023-02-11T21:48:54.541Z,5.60
2023-02-11T21:51:24.624Z,5.61
2023-02-11T21:53:54.906Z,5.62
2023-02-11T21:56:26.370Z,5.62
2023-02-11T21:58:56.087Z,5.62
2023-02-11T22:01:26.986Z,5.61
2023-02-11T22:03:54.782Z,5.59
2023-02-11T22:06:27.081Z,5.59
2023-02-11T22:08:55.911Z,5.57
2023-02-11T22:11:25.358Z,5.56
2023-02-11T22:13:54.752Z,5.57
2023-02-11T22:16:23.072Z,5.57
2023-02-11T22:18:51.478Z,5.59
2023-02-11T22:21:22.315Z,5.58
2023-02-11T22:23:51.454Z,5.57
2023-02-11T22:26:21.872Z,5.54
2023-02-11T22:28:52.162Z,5.52
2023-02-11T22:31:22.796Z,5.47
2023-02-11T22:33:51.149Z,5.46
2023-02-11T22:36:21.470Z,5.43
2023-02-11T22:38:49.231Z,5.42
2023-02-11T22:41:18.006Z,5.39
2023-02-11T22:43:46.184Z,5.38
2023-02-11T22:46:17.822Z,5.37
2023-02-11T22:48:45.979Z,5.37
2023-02-11T22:51:16.217Z,5.36
2023-02-11T22:53:44.548Z,5.33
2023-02-11T22:56:15.825Z,5.33
2023-02-11T22:58:44.120Z,5.35
2023-02-11T23:01:12.608Z,5.37
2023-02-11T23:03:42.200Z,5.39
2023-02-11T23:06:12.639Z,5.39
2023-02-11T23:08:42.849Z,5.41
2023-02-11T23:11:13.437Z,5.44
2023-02-11T23:13:42.545Z,5.41
2023-02-11T23:16:12.548Z,5.39
2023-02-11T23:18:43.259Z,5.36
2023-02-11T23:21:13.676Z,5.35
2023-02-11T23:23:41.459Z,5.33
2023-02-11T23:26:11.332Z,5.31
2023-02-11T23:28:39.306Z,5.31
2023-02-11T23:31:14.963Z,5.29
2023-02-11T23:33:44.124Z,5.26
2023-02-11T23:36:12.283Z,5.24
2023-02-11T23:38:40.337Z,5.23
2023-02-11T23:41:08.490Z,5.23
2023-02-11T23:43:36.414Z,5.24
2023-02-11T23:46:04.683Z,5.23
2023-02-11T23:48:32.421Z,5.21
2023-02-11T23:51:01.515Z,5.23
2023-02-11T23:53:29.322Z,5.23
2023-02-11T23:55:57.184Z,5.24
2023-02-11T23:58:25.205Z,5.24
